createdAt,value
2022-12-25T00:01:34.478Z,100284.31
2022-12-25T00:04:02.438Z,100288.61
2022-12-25T00:06:30.416Z,100292.19
2022-12-25T00:08:58.208Z,100290.30
2022-12-25T00:11:26.113Z,100287.04
2022-12-25T00:13:53.938Z,100285.85
2022-12-25T00:16:26.547Z,100281.21
2022-12-25T00:18:59.043Z,100288.77
2022-12-25T00:21:28.020Z,100294.95
2022-12-25T00:23:57.989Z,100301.95
2022-12-25T00:26:27.854Z,100302.63
2022-12-25T00:28:58.325Z,100306.90
2022-12-25T00:31:27.631Z,100310.67
2022-12-25T00:33:55.572Z,100311.71
2022-12-25T00:36:23.877Z,100317.37
2022-12-25T00:38:51.710Z,100321.33
2022-12-25T00:41:42.461Z,100325.06
2022-12-25T00:44:12.687Z,100329.70
2022-12-25T00:46:41.738Z,100335.31
2022-12-25T00:49:10.422Z,100342.30
2022-12-25T00:51:38.422Z,100344.52
2022-12-25T00:54:06.396Z,100351.73
2022-12-25T00:56:35.247Z,100353.48
2022-12-25T00:59:03.079Z,100354.71
2022-12-25T01:01:32.976Z,100356.95
2022-12-25T01:04:01.276Z,100364.52
2022-12-25T01:06:29.832Z,100365.73
2022-12-25T01:09:14.545Z,100370.35
2022-12-25T01:11:42.425Z,100372.44
2022-12-25T01:14:10.764Z,100374.33
2022-12-25T01:16:38.954Z,100365.09
2022-12-25T01:19:07.055Z,100364.10
2022-12-25T01:21:35.038Z,100357.79
2022-12-25T01:24:02.933Z,100353.70
2022-12-25T01:26:30.851Z,100352.05
2022-12-25T01:28:58.754Z,100356.20
2022-12-25T01:31:26.818Z,100361.70
2022-12-25T01:33:54.665Z,100360.50
2022-12-25T01:36:25.469Z,100364.08
2022-12-25T01:38:54.219Z,100362.70
2022-12-25T01:41:25.430Z,100361.97
2022-12-25T01:44:28.815Z,100362.48
2022-12-25T01:46:56.618Z,100364.19
2022-12-25T01:49:26.181Z,100362.30
2022-12-25T01:52:04.914Z,100368.36
2022-12-25T01:54:45.230Z,100371.13
2022-12-25T01:57:27.770Z,100370.83
2022-12-25T02:00:01.796Z,100373.41
2022-12-25T02:02:29.956Z,100373.24
2022-12-25T02:05:03.896Z,100373.08
2022-12-25T02:07:37.548Z,100376.86
2022-12-25T02:10:06.076Z,100378.41
2022-12-25T02:12:35.735Z,100382.71
2022-12-25T02:15:16.660Z,100386.30
2022-12-25T02:18:06.369Z,100389.38
2022-12-25T02:20:40.071Z,100384.75
2022-12-25T02:23:29.473Z,100381.17
2022-12-25T02:26:14.492Z,100372.44
2022-12-25T02:28:46.127Z,100369.55
2022-12-25T02:31:27.878Z,100360.45
2022-12-25T02:34:14.578Z,100357.87
2022-12-25T02:37:05.617Z,100356.52
2022-12-25T02:39:59.086Z,100357.04
2022-12-25T02:43:02.921Z,100354.27
2022-12-25T02:45:51.359Z,100354.09
2022-12-25T02:48:38.712Z,100358.36
2022-12-25T02:51:28.475Z,100359.20
2022-12-25T02:54:15.377Z,100359.89
2022-12-25T02:57:02.630Z,100361.25
2022-12-25T02:59:48.700Z,100371.53
2022-12-25T03:02:35.025Z,100371.02
2022-12-25T03:05:22.586Z,100372.56
2022-12-25T03:07:51.247Z,100372.40
2022-12-25T03:10:38.366Z,100368.80
2022-12-25T03:13:13.213Z,100368.14
2022-12-25T03:15:57.315Z,100370.73
2022-12-25T03:18:27.935Z,100376.61
2022-12-25T03:21:12.094Z,100378.88
2022-12-25T03:23:59.877Z,100377.37
2022-12-25T03:26:43.833Z,100376.52
2022-12-25T03:29:32.166Z,100375.54
2022-12-25T03:32:41.745Z,100380.36
2022-12-25T03:35:31.245Z,100374.14
2022-12-25T03:38:22.180Z,100375.17
2022-12-25T03:41:16.924Z,100374.31
2022-12-25T03:44:06.877Z,100373.83
2022-12-25T03:46:58.669Z,100381.39
2022-12-25T03:50:31.685Z,100381.92
2022-12-25T03:53:28.920Z,100393.46
2022-12-25T03:56:14.251Z,100395.17
2022-12-25T03:59:19.472Z,100394.80
2022-12-25T04:02:08.956Z,100394.75
2022-12-25T04:04:53.073Z,100395.24
2022-12-25T04:07:36.886Z,100392.79
2022-12-25T04:10:21.299Z,100392.11
2022-12-25T04:13:05.156Z,100388.67
2022-12-25T04:15:49.061Z,100391.59
2022-12-25T04:18:33.007Z,100394.89
2022-12-25T04:21:16.820Z,100398.70
2022-12-25T04:23:59.587Z,100398.08
2022-12-25T04:26:42.690Z,100404.11
2022-12-25T04:29:25.453Z,100407.23
2022-12-25T04:32:09.197Z,100410.34
2022-12-25T04:34:55.239Z,100405.70
2022-12-25T04:37:23.264Z,100414.29
2022-12-25T04:39:51.247Z,100415.31
2022-12-25T04:42:19.283Z,100416.52
2022-12-25T04:44:47.180Z,100413.78
2022-12-25T04:47:15.120Z,100414.15
2022-12-25T04:49:43.050Z,100417.61
2022-12-25T04:52:10.951Z,100420.04
2022-12-25T04:54:59.402Z,100424.38
2022-12-25T04:57:27.318Z,100425.90
2022-12-25T04:59:55.228Z,100422.79
2022-12-25T05:02:23.354Z,100419.66
2022-12-25T05:04:51.937Z,100423.95
2022-12-25T05:07:19.828Z,100425.32
2022-12-25T05:09:47.772Z,100424.80
2022-12-25T05:12:15.570Z,100422.75
2022-12-25T05:14:45.026Z,100422.27
2022-12-25T05:17:12.942Z,100419.17
2022-12-25T05:19:40.837Z,100415.06
2022-12-25T05:22:17.769Z,100417.27
2022-12-25T05:24:50.590Z,100416.05
2022-12-25T05:27:27.442Z,100417.91
2022-12-25T05:30:08.500Z,100417.71
2022-12-25T05:35:33.284Z,100429.97
2022-12-25T05:38:05.679Z,100430.86
2022-12-25T05:40:42.094Z,100435.20
2022-12-25T05:43:13.677Z,100441.56
2022-12-25T05:45:42.875Z,100447.23
2022-12-25T05:48:14.068Z,100452.67
2022-12-25T05:50:52.398Z,100454.70
2022-12-25T05:53:23.572Z,100456.55
2022-12-25T05:55:54.690Z,100460.31
2022-12-25T05:58:26.223Z,100467.52
2022-12-25T06:00:54.836Z,100467.71
2022-12-25T06:03:27.607Z,100468.74
2022-12-25T06:08:38.740Z,100479.55
2022-12-25T06:11:08.361Z,100479.39
2022-12-25T06:13:36.646Z,100488.14
2022-12-25T06:16:08.974Z,100488.28
2022-12-25T06:18:43.855Z,100492.55
2022-12-25T06:21:13.865Z,100496.50
2022-12-25T06:23:42.166Z,100496.46
2022-12-25T06:26:13.462Z,100500.93
2022-12-25T06:28:41.742Z,100507.81
2022-12-25T06:31:18.615Z,100507.65
2022-12-25T06:33:47.147Z,100507.14
2022-12-25T06:36:21.454Z,100506.27
2022-12-25T06:38:49.165Z,100507.29
2022-12-25T06:41:19.414Z,100514.33
2022-12-25T06:43:52.035Z,100518.27
2022-12-25T06:46:21.574Z,100521.87
2022-12-25T06:48:50.158Z,100529.80
2022-12-25T06:51:24.232Z,100537.02
2022-12-25T06:53:52.991Z,100544.08
2022-12-25T06:56:24.004Z,100550.94
2022-12-25T06:58:55.742Z,100559.35
2022-12-25T07:01:39.825Z,100566.07
2022-12-25T07:04:14.471Z,100573.66
2022-12-25T07:06:42.096Z,100577.30
2022-12-25T07:09:09.939Z,100580.42
2022-12-25T07:11:38.012Z,100582.48
2022-12-25T07:14:05.744Z,100585.25
2022-12-25T07:16:33.489Z,100587.67
2022-12-25T07:19:01.439Z,100590.41
2022-12-25T07:21:29.132Z,100585.60
2022-12-25T07:23:56.781Z,100591.10
2022-12-25T07:26:24.476Z,100596.59
2022-12-25T07:28:52.130Z,100599.86
2022-12-25T07:31:19.886Z,100602.95
2022-12-25T07:33:48.173Z,100603.48
2022-12-25T07:36:16.484Z,100608.81
2022-12-25T07:38:44.248Z,100615.16
2022-12-25T07:41:13.176Z,100620.84
2022-12-25T07:43:41.730Z,100625.98
2022-12-25T07:46:10.102Z,100639.05
2022-12-25T07:48:37.785Z,100646.08
2022-12-25T07:51:08.223Z,100642.83
2022-12-25T07:53:36.489Z,100639.56
2022-12-25T07:56:13.290Z,100644.41
2022-12-25T07:58:41.048Z,100645.79
2022-12-25T08:01:17.664Z,100651.46
2022-12-25T08:03:54.635Z,100655.24
2022-12-25T08:06:26.846Z,100655.59
2022-12-25T08:08:54.502Z,100665.04
2022-12-25T08:11:22.729Z,100673.82
2022-12-25T08:13:50.491Z,100673.95
2022-12-25T08:16:18.262Z,100673.94
2022-12-25T08:18:46.028Z,100677.05
2022-12-25T08:21:16.312Z,100677.42
2022-12-25T08:23:46.644Z,100675.23
2022-12-25T08:26:17.852Z,100668.23
2022-12-25T08:28:46.381Z,100666.89
2022-12-25T08:31:18.595Z,100669.30
2022-12-25T08:33:47.792Z,100678.44
2022-12-25T08:36:16.929Z,100683.58
2022-12-25T08:38:45.376Z,100686.99
2022-12-25T08:41:13.801Z,100685.98
2022-12-25T08:43:41.718Z,100684.64
2022-12-25T08:46:10.246Z,100680.22
2022-12-25T08:48:38.295Z,100680.09
2022-12-25T08:51:12.119Z,100682.39
2022-12-25T08:53:41.820Z,100684.17
2022-12-25T08:56:11.294Z,100683.48
2022-12-25T08:58:39.428Z,100686.08
2022-12-25T09:01:07.648Z,100681.63
2022-12-25T09:03:35.658Z,100678.20
2022-12-25T09:06:04.788Z,100674.95
2022-12-25T09:08:32.947Z,100671.02
2022-12-25T09:11:05.900Z,100665.24
2022-12-25T09:13:34.379Z,100662.04
2022-12-25T09:16:09.470Z,100661.58
2022-12-25T09:18:37.508Z,100657.86
2022-12-25T09:21:07.697Z,100658.25
2022-12-25T09:23:35.917Z,100654.04
2022-12-25T09:26:05.911Z,100655.48
2022-12-25T09:28:34.482Z,100657.11
2022-12-25T09:31:02.864Z,100657.48
2022-12-25T09:33:30.808Z,100665.98
2022-12-25T09:36:01.650Z,100670.67
2022-12-25T09:38:30.664Z,100670.46
2022-12-25T09:41:17.223Z,100667.71
2022-12-25T09:43:55.130Z,100667.02
2022-12-25T09:46:31.636Z,100667.39
2022-12-25T09:49:36.476Z,100671.21
2022-12-25T09:52:18.347Z,100664.92
2022-12-25T09:55:20.443Z,100669.45
2022-12-25T09:57:54.229Z,100670.88
2022-12-25T10:00:24.526Z,100673.12
2022-12-25T10:03:11.269Z,100677.92
2022-12-25T10:05:58.345Z,100688.08
2022-12-25T10:08:28.893Z,100691.85
2022-12-25T10:11:30.469Z,100692.52
2022-12-25T10:14:39.388Z,100696.30
2022-12-25T10:17:25.881Z,100700.27
2022-12-25T10:20:25.396Z,100697.19
2022-12-25T10:22:58.116Z,100701.86
2022-12-25T10:25:26.218Z,100701.20
2022-12-25T10:28:11.833Z,100701.42
2022-12-25T10:30:42.798Z,100704.77
2022-12-25T10:33:17.039Z,100701.75
2022-12-25T10:35:45.792Z,100695.97
2022-12-25T10:38:19.306Z,100687.75
2022-12-25T10:41:02.943Z,100690.05
2022-12-25T10:43:52.791Z,100692.52
2022-12-25T10:46:22.566Z,100686.52
2022-12-25T10:48:59.806Z,100682.21
2022-12-25T10:51:32.565Z,100677.58
2022-12-25T10:54:03.155Z,100673.60
2022-12-25T10:56:30.876Z,100671.89
2022-12-25T10:59:11.680Z,100675.87
2022-12-25T11:01:39.480Z,100674.85
2022-12-25T11:04:17.860Z,100664.71
2022-12-25T11:06:57.250Z,100663.36
2022-12-25T11:09:25.090Z,100665.29
2022-12-25T11:11:53.588Z,100668.58
2022-12-25T11:14:22.761Z,100669.98
2022-12-25T11:16:50.513Z,100673.45
2022-12-25T11:19:26.914Z,100674.14
2022-12-25T11:21:57.464Z,100672.94
2022-12-25T11:24:30.124Z,100676.04
2022-12-25T11:27:06.353Z,100676.17
2022-12-25T11:29:51.406Z,100676.33
2022-12-25T11:32:39.864Z,100676.48
2022-12-25T11:35:15.216Z,100674.03
2022-12-25T11:37:42.862Z,100672.78
2022-12-25T11:40:18.856Z,100669.33
2022-12-25T11:43:07.536Z,100670.51
2022-12-25T11:45:40.646Z,100665.52
2022-12-25T11:48:21.693Z,100667.05
2022-12-25T11:50:59.921Z,100669.98
2022-12-25T11:53:47.637Z,100672.90
2022-12-25T11:56:21.630Z,100674.29
2022-12-25T11:58:51.783Z,100674.46
2022-12-25T12:02:02.929Z,100677.73
2022-12-25T12:04:43.120Z,100677.91
2022-12-25T12:07:29.746Z,100678.95
2022-12-25T12:10:36.812Z,100678.45
2022-12-25T12:13:36.772Z,100680.52
2022-12-25T12:16:06.000Z,100685.38
2022-12-25T12:18:34.710Z,100684.66
2022-12-25T12:21:02.364Z,100685.32
2022-12-25T12:23:34.523Z,100680.14
2022-12-25T12:26:04.285Z,100675.47
2022-12-25T12:28:44.726Z,100673.38
2022-12-25T12:31:13.812Z,100669.91
2022-12-25T12:33:50.679Z,100672.14
2022-12-25T12:36:34.488Z,100669.52
2022-12-25T12:39:05.776Z,100671.77
2022-12-25T12:41:49.636Z,100670.18
2022-12-25T12:44:18.381Z,100661.92
2022-12-25T12:46:57.671Z,100658.13
2022-12-25T12:49:30.299Z,100658.33
2022-12-25T12:52:25.627Z,100653.17
2022-12-25T12:55:16.852Z,100651.11
2022-12-25T12:57:44.565Z,100656.31
2022-12-25T13:00:20.977Z,100657.17
2022-12-25T13:03:14.022Z,100663.90
2022-12-25T13:05:57.612Z,100661.45
2022-12-25T13:08:30.068Z,100662.48
2022-12-25T13:11:17.747Z,100668.54
2022-12-25T13:13:47.515Z,100672.52
2022-12-25T13:16:42.705Z,100676.99
2022-12-25T13:19:18.028Z,100673.92
2022-12-25T13:21:57.031Z,100674.12
2022-12-25T13:24:27.659Z,100679.85
2022-12-25T13:26:55.744Z,100676.77
2022-12-25T13:29:32.346Z,100671.81
2022-12-25T13:32:02.784Z,100666.49
2022-12-25T13:34:48.237Z,100666.84
2022-12-25T13:37:19.585Z,100662.55
2022-12-25T13:39:59.958Z,100667.34
2022-12-25T13:42:39.918Z,100674.90
2022-12-25T13:45:22.436Z,100671.42
2022-12-25T13:47:55.406Z,100665.72
2022-12-25T13:50:30.155Z,100665.20
2022-12-25T13:53:10.589Z,100669.66
2022-12-25T13:55:38.586Z,100680.35
2022-12-25T13:58:07.672Z,100686.52
2022-12-25T14:00:36.882Z,100685.14
2022-12-25T14:03:07.471Z,100685.80
2022-12-25T14:05:42.841Z,100683.37
2022-12-25T14:08:24.331Z,100683.52
2022-12-25T14:10:53.664Z,100686.23
2022-12-25T14:13:26.874Z,100681.71
2022-12-25T14:15:57.079Z,100680.17
2022-12-25T14:18:25.600Z,100684.64
2022-12-25T14:20:56.409Z,100689.45
2022-12-25T14:23:24.736Z,100691.69
2022-12-25T14:25:52.797Z,100693.25
2022-12-25T14:28:26.673Z,100691.55
2022-12-25T14:30:54.622Z,100701.55
2022-12-25T14:33:25.774Z,100708.77
2022-12-25T14:35:53.848Z,100716.34
2022-12-25T14:38:28.378Z,100717.38
2022-12-25T14:41:05.733Z,100721.51
2022-12-25T14:43:36.282Z,100723.23
2022-12-25T14:46:08.858Z,100727.55
2022-12-25T14:48:36.642Z,100723.59
2022-12-25T14:51:08.659Z,100724.30
2022-12-25T14:53:40.762Z,100722.23
2022-12-25T14:56:10.501Z,100722.08
2022-12-25T14:58:42.836Z,100722.77
2022-12-25T15:01:34.792Z,100719.65
2022-12-25T15:04:20.548Z,100723.62
2022-12-25T15:07:01.400Z,100715.34
2022-12-25T15:09:30.090Z,100712.91
2022-12-25T15:11:57.972Z,100713.24
2022-12-25T15:14:27.172Z,100716.73
2022-12-25T15:16:58.737Z,100720.52
2022-12-25T15:19:36.513Z,100716.06
2022-12-25T15:22:04.840Z,100711.43
2022-12-25T15:24:32.479Z,100704.36
2022-12-25T15:27:00.712Z,100706.09
2022-12-25T15:32:23.114Z,100706.77
2022-12-25T15:34:51.211Z,100711.55
2022-12-25T15:37:19.184Z,100706.73
2022-12-25T15:39:46.947Z,100705.02
2022-12-25T15:42:21.223Z,100699.84
2022-12-25T15:44:48.932Z,100695.54
2022-12-25T15:47:20.122Z,100691.92
2022-12-25T15:49:48.867Z,100692.95
2022-12-25T15:52:17.813Z,100689.34
2022-12-25T15:54:45.596Z,100695.89
2022-12-25T15:57:23.324Z,100697.97
2022-12-25T15:59:51.017Z,100701.22
2022-12-25T16:02:21.209Z,100703.98
2022-12-25T16:04:51.048Z,100701.71
2022-12-25T16:07:21.629Z,100699.11
2022-12-25T16:09:49.870Z,100699.78
2022-12-25T16:12:19.769Z,100706.48
2022-12-25T16:14:47.443Z,100717.65
2022-12-25T16:17:16.392Z,100723.32
2022-12-25T16:19:45.013Z,100724.49
2022-12-25T16:22:14.633Z,100728.43
2022-12-25T16:24:42.306Z,100726.19
2022-12-25T16:27:10.004Z,100726.36
2022-12-25T16:29:37.713Z,100724.45
2022-12-25T16:32:05.389Z,100720.48
2022-12-25T16:34:33.033Z,100715.31
2022-12-25T16:37:00.705Z,100712.73
2022-12-25T16:39:29.288Z,100716.52
2022-12-25T16:41:56.978Z,100716.16
2022-12-25T16:44:24.666Z,100709.27
2022-12-25T16:46:52.519Z,100704.95
2022-12-25T16:49:20.351Z,100705.97
2022-12-25T16:51:48.038Z,100702.52
2022-12-25T16:54:15.763Z,100702.14
2022-12-25T16:56:43.491Z,100703.00
2022-12-25T16:59:11.394Z,100702.14
2022-12-25T17:01:43.220Z,100700.56
2022-12-25T17:04:11.371Z,100701.77
2022-12-25T17:06:39.072Z,100702.63
2022-12-25T17:09:07.529Z,100703.98
2022-12-25T17:11:35.212Z,100708.30
2022-12-25T17:14:05.308Z,100700.56
2022-12-25T17:16:35.722Z,100692.29
2022-12-25T17:19:09.586Z,100691.77
2022-12-25T17:21:38.283Z,100688.85
2022-12-25T17:24:06.646Z,100680.23
2022-12-25T17:26:34.704Z,100676.80
2022-12-25T17:29:02.463Z,100673.86
2022-12-25T17:31:30.379Z,100677.81
2022-12-25T17:34:00.882Z,100676.44
2022-12-25T17:36:29.693Z,100674.56
2022-12-25T17:39:02.210Z,100677.14
2022-12-25T17:41:30.271Z,100675.60
2022-12-25T17:43:58.359Z,100674.42
2022-12-25T17:46:28.706Z,100672.53
2022-12-25T17:49:00.298Z,100672.55
2022-12-25T17:51:30.369Z,100673.77
2022-12-25T17:54:03.092Z,100674.46
2022-12-25T17:56:32.071Z,100671.53
2022-12-25T17:59:06.508Z,100671.38
2022-12-25T18:01:36.416Z,100668.96
2022-12-25T18:04:06.312Z,100661.90
2022-12-25T18:06:35.691Z,100651.76
2022-12-25T18:09:06.125Z,100654.34
2022-12-25T18:11:36.765Z,100657.77
2022-12-25T18:14:06.709Z,100661.22
2022-12-25T18:16:36.449Z,100663.30
2022-12-25T18:19:04.979Z,100665.35
2022-12-25T18:21:32.682Z,100665.52
2022-12-25T18:24:03.358Z,100666.56
2022-12-25T18:26:31.568Z,100667.25
2022-12-25T18:28:59.309Z,100658.14
2022-12-25T18:31:30.472Z,100651.77
2022-12-25T18:33:59.720Z,100649.70
2022-12-25T18:36:29.951Z,100647.80
2022-12-25T18:38:59.083Z,100649.00
2022-12-25T18:41:28.655Z,100644.38
2022-12-25T18:43:57.150Z,100641.80
2022-12-25T18:46:26.842Z,100638.18
2022-12-25T18:48:56.208Z,100633.36
2022-12-25T18:51:24.596Z,100635.08
2022-12-25T18:53:52.311Z,100633.03
2022-12-25T18:56:20.449Z,100627.36
2022-12-25T18:58:48.491Z,100626.84
2022-12-25T19:01:24.163Z,100623.05
2022-12-25T19:03:58.674Z,100614.80
2022-12-25T19:06:33.448Z,100609.12
2022-12-25T19:09:08.555Z,100605.35
2022-12-25T19:11:46.169Z,100604.33
2022-12-25T19:14:15.289Z,100600.55
2022-12-25T19:16:43.141Z,100599.02
2022-12-25T19:19:11.366Z,100598.48
2022-12-25T19:21:39.212Z,100597.27
2022-12-25T19:24:07.445Z,100592.08
2022-12-25T19:26:36.167Z,100592.61
2022-12-25T19:29:03.899Z,100592.96
2022-12-25T19:31:31.843Z,100599.50
2022-12-25T19:33:59.579Z,100600.54
2022-12-25T19:36:27.483Z,100595.20
2022-12-25T19:38:55.242Z,100591.23
2022-12-25T19:41:23.069Z,100582.45
2022-12-25T19:43:52.253Z,100575.73
2022-12-25T19:46:23.082Z,100573.15
2022-12-25T19:48:51.607Z,100576.23
2022-12-25T19:51:23.163Z,100582.95
2022-12-25T19:53:51.685Z,100579.66
2022-12-25T19:56:19.735Z,100577.77
2022-12-25T19:58:47.500Z,100574.15
2022-12-25T20:01:18.880Z,100573.09
2022-12-25T20:03:47.583Z,100575.67
2022-12-25T20:06:20.110Z,100573.95
2022-12-25T20:08:49.425Z,100570.16
2022-12-25T20:11:17.667Z,100564.47
2022-12-25T20:13:45.573Z,100558.96
2022-12-25T20:16:13.411Z,100560.86
2022-12-25T20:18:41.794Z,100559.48
2022-12-25T20:21:18.195Z,100550.70
2022-12-25T20:23:48.064Z,100549.00
2022-12-25T20:26:18.579Z,100549.49
2022-12-25T20:28:46.642Z,100554.33
2022-12-25T20:31:18.445Z,100552.94
2022-12-25T20:33:47.000Z,100546.73
2022-12-25T20:36:15.264Z,100543.64
2022-12-25T20:38:42.983Z,100538.13
2022-12-25T20:41:31.700Z,100539.15
2022-12-25T20:44:01.676Z,100542.42
2022-12-25T20:46:29.805Z,100545.67
2022-12-25T20:48:58.179Z,100547.73
2022-12-25T20:51:26.937Z,100544.27
2022-12-25T20:53:55.467Z,100535.33
2022-12-25T20:56:25.978Z,100527.20
2022-12-25T20:58:55.373Z,100524.80
2022-12-25T21:01:24.388Z,100522.73
2022-12-25T21:03:52.673Z,100514.64
2022-12-25T21:06:21.202Z,100510.13
2022-12-25T21:08:48.888Z,100507.20
2022-12-25T21:11:17.967Z,100501.66
2022-12-25T21:13:47.194Z,100498.40
2022-12-25T21:16:18.569Z,100493.90
2022-12-25T21:18:47.235Z,100497.52
2022-12-25T21:21:15.683Z,100490.79
2022-12-25T21:23:43.398Z,100490.27
2022-12-25T21:26:28.725Z,100490.27
2022-12-25T21:29:00.601Z,100484.78
2022-12-25T21:31:29.306Z,100474.95
2022-12-25T21:33:57.975Z,100469.45
2022-12-25T21:36:31.467Z,100468.23
2022-12-25T21:39:05.669Z,100472.89
2022-12-25T21:41:35.593Z,100471.16
2022-12-25T21:44:03.414Z,100472.03
2022-12-25T21:46:31.362Z,100467.03
2022-12-25T21:49:00.808Z,100463.96
2022-12-25T21:51:50.041Z,100458.80
2022-12-25T21:54:19.867Z,100448.66
2022-12-25T21:56:48.708Z,100436.95
2022-12-25T21:59:19.195Z,100425.95
2022-12-25T22:01:49.850Z,100418.89
2022-12-25T22:04:19.928Z,100415.44
2022-12-25T22:07:03.849Z,100412.88
2022-12-25T22:09:32.339Z,100408.40
2022-12-25T22:12:16.179Z,100405.13
2022-12-25T22:14:54.629Z,100403.93
2022-12-25T22:17:44.247Z,100401.50
2022-12-25T22:20:37.127Z,100400.48
2022-12-25T22:23:05.111Z,100400.14
2022-12-25T22:25:32.818Z,100392.93
2022-12-25T22:28:00.596Z,100387.07
2022-12-25T22:30:29.524Z,100382.07
2022-12-25T22:32:57.253Z,100376.04
2022-12-25T22:35:25.016Z,100360.89
2022-12-25T22:37:53.933Z,100346.42
2022-12-25T22:40:21.775Z,100341.60
2022-12-25T22:42:49.694Z,100349.18
2022-12-25T22:45:17.490Z,100351.94
2022-12-25T22:47:45.189Z,100349.70
2022-12-25T22:50:16.732Z,100349.71
2022-12-25T22:52:45.757Z,100349.36
2022-12-25T22:55:16.627Z,100345.92
2022-12-25T22:57:44.300Z,100336.79
2022-12-25T23:00:13.560Z,100336.45
2022-12-25T23:02:41.571Z,100323.53
2022-12-25T23:05:09.647Z,100310.96
2022-12-25T23:07:37.386Z,100303.73
2022-12-25T23:10:06.627Z,100301.34
2022-12-25T23:12:50.335Z,100303.05
2022-12-25T23:15:18.193Z,100296.52
2022-12-25T23:18:01.823Z,100292.04
2022-12-25T23:20:55.718Z,100299.95
2022-12-25T23:23:38.405Z,100304.95
2022-12-25T23:26:08.961Z,100302.17
2022-12-25T23:28:54.719Z,100297.52
2022-12-25T23:31:28.305Z,100299.77
2022-12-25T23:33:58.635Z,100304.94
2022-12-25T23:36:26.363Z,100306.14
2022-12-25T23:38:54.191Z,100299.59
2022-12-25T23:41:21.945Z,100302.70
2022-12-25T23:43:49.671Z,100309.23
2022-12-25T23:46:17.529Z,100307.17
2022-12-25T23:48:46.123Z,100303.04
2022-12-25T23:51:13.793Z,100300.28
2022-12-25T23:53:41.447Z,100289.78
2022-12-25T23:56:10.619Z,100285.48
2022-12-25T23:58:38.557Z,100279.98
